Latest Weather Observations for Halls Creek

IDW60801

Issued at 8:52 am WST Thursday 22 February 2024 (issued every 10 minutes, with the page automatically refreshed every 10 minutes)

About weather observations | Map of weather stations | Latest weather observations for WA | Other Formats
Station Details ID: 002079 Name: HALLS CREEK AIRPORT Lat: -18.23 Lon: 127.67 Height: 409.4 m
Data from the previous 72 hours. | See also: Recent months at Halls Creek
Date/Time
WST
Temp
°C
App
Temp
°C
Dew
Point
°C
Rel
Hum
%
Delta-T
°C
Wind Press
QNH
hPa
Press
MSL
hPa
Rain since
9am
mm
Dir  Spd
km/h
Gust
km/h
Spd
kts
Gust
kts
22/08:34am 26.5 28.7 23.2 82 2.3 N 17 24 9 13 1014.1 1010.9 0.2
22/08:30am 26.4 29.0 23.3 83 2.1 N 15 24 8 13 1014.1 1010.9 0.2
22/08:00am 26.1 29.4 23.8 87 1.6 N 13 20 7 11 1013.9 1010.7 0.2
22/07:38am 25.5 28.3 23.7 90 1.2 N 15 22 8 12 1013.7 1010.5 0.2
22/07:30am 25.4 28.2 23.6 90 1.2 N 15 20 8 11 1013.6 1010.4 0.2
22/07:00am 24.9 28.5 23.7 93 0.8 NE 11 15 6 8 1013.3 1010.1 0.2
22/06:30am 24.5 28.0 23.6 95 0.6 NNE 11 17 6 9 1012.9 1009.6 0.2
22/06:23am 24.5 28.1 23.8 96 0.5 NE 11 17 6 9 1012.8 1009.5 0.2
22/06:00am 24.3 28.2 23.6 96 0.5 NE 9 13 5 7 1012.6 1009.3 0.2
22/05:30am 24.3 28.3 23.8 97 0.3 ENE 9 11 5 6 1012.6 1009.3 0.2
22/05:00am 24.0 28.0 23.7 98 0.2 ENE 9 11 5 6 1012.2 1009.0 0.2
22/04:30am 24.0 28.3 23.7 98 0.2 NE 7 9 4 5 1011.9 1008.7 0.2
22/04:23am 24.0 28.2 23.5 97 0.3 ENE 7 7 4 4 1011.9 1008.7 0.2
22/04:00am 24.1 27.9 23.4 96 0.5 NNE 9 11 5 6 1011.8 1008.6 0.2
22/03:30am 24.3 27.7 23.4 95 0.6 NE 11 15 6 8 1011.7 1008.5 0.2
22/03:00am 24.3 28.1 23.4 95 0.6 NNE 9 13 5 7 1011.5 1008.3 0.2
22/02:30am 24.3 27.7 23.4 95 0.6 NNE 11 15 6 8 1011.2 1008.0 0.2
22/02:00am 24.3 28.1 23.4 95 0.6 NNE 9 13 5 7 1011.3 1008.1 0.2
22/01:39am 24.2 28.4 23.5 96 0.5 NNE 7 13 4 7 1011.3 1008.1 0.2
22/01:30am 24.1 28.3 23.4 96 0.5 NE 7 9 4 5 1011.3 1008.1 0.2
22/01:22am 24.2 28.0 23.5 96 0.5 ENE 9 13 5 7 1011.3 1008.1 0.2
22/01:00am 24.3 27.3 23.4 95 0.6 NE 13 17 7 9 1011.1 1007.9 0.2
22/12:30am 24.4 27.3 23.2 93 0.8 NNE 13 19 7 10 1011.2 1008.0 0.2
22/12:00am 24.6 27.4 23.0 91 1.1 NNE 13 19 7 10 1011.5 1008.3 0.2
 
Date/Time
WST
Temp
°C
App
Temp
°C
Dew
Point
°C
Rel
Hum
%
Delta-T
°C
Wind Press
QNH
hPa
Press
MSL
hPa
Rain since
9am
mm
Dir  Spd
km/h
Gust
km/h
Spd
kts
Gust
kts
21/11:30pm 24.7 28.2 22.9 90 1.2 NE 9 15 5 8 1011.8 1008.6 0.2
21/11:00pm 24.9 27.7 23.0 89 1.3 NNE 13 20 7 11 1011.9 1008.7 0.2
21/10:30pm 25.1 28.2 22.8 87 1.6 NE 11 17 6 9 1012.4 1009.2 0.2
21/10:00pm 25.3 27.9 22.6 85 1.8 NNE 13 19 7 10 1012.3 1009.1 0.2
21/09:30pm 25.6 27.6 22.3 82 2.2 NE 15 20 8 11 1012.1 1008.9 0.2
21/09:00pm 25.8 28.7 22.5 82 2.3 ENE 11 13 6 7 1011.7 1008.5 0.2
21/08:30pm 26.3 27.9 22.2 78 2.8 ENE 17 20 9 11 1011.3 1008.1 0.2
21/08:00pm 26.8 28.8 22.2 76 3.1 ENE 15 19 8 10 1010.9 1007.7 0.2
21/07:30pm 27.4 29.0 22.1 73 3.6 ENE 17 24 9 13 1010.6 1007.3 0.2
21/07:00pm 28.0 29.3 22.7 73 3.7 ENE 20 32 11 17 1010.0 1006.7 0.2
21/06:30pm 28.3 30.1 23.2 74 3.5 ENE 19 26 10 14 1009.5 1006.3 0.2
21/06:00pm 29.1 30.5 22.8 69 4.4 NE 20 28 11 15 1009.0 1005.8 0.2
21/05:30pm 29.9 31.6 22.3 63 5.2 NE 17 22 9 12 1008.3 1005.0 0.2
21/05:00pm 30.5 31.1 22.1 61 5.8 ENE 22 32 12 17 1008.0 1004.7 0.2
21/04:30pm 31.6 32.8 23.2 61 5.9 NE 22 32 12 17 1008.0 1004.7 0.2
21/04:00pm 31.8 33.2 22.8 59 6.3 NE 20 30 11 16 1007.8 1004.5 0.2
21/03:30pm 32.3 33.7 23.5 59 6.2 NE 22 30 12 16 1007.6 1004.3 0.2
21/03:00pm 31.7 32.1 22.4 58 6.4 NE 24 35 13 19 1007.6 1004.3 0.2
21/02:30pm 31.9 32.6 22.9 59 6.3 NE 24 32 13 17 1007.5 1004.2 0.2
21/02:00pm 31.9 32.6 22.9 59 6.3 ENE 24 30 13 16 1007.7 1004.4 0.2
21/01:30pm 31.8 31.9 23.3 60 6.0 ENE 28 37 15 20 1008.0 1004.7 0.2
21/01:00pm 31.4 31.3 23.5 63 5.5 NE 30 43 16 23 1008.3 1005.0 0.2
21/12:30pm 31.0 30.9 23.6 64 5.2 ENE 30 39 16 21 1008.5 1005.3 0.2
21/12:00pm 31.0 30.9 23.6 64 5.2 ENE 30 44 16 24 1008.8 1005.6 0.2
21/11:30am 29.9 30.2 23.6 69 4.4 NE 28 37 15 20 1009.1 1005.9 0.2
21/11:00am 29.5 29.2 23.2 69 4.4 NE 30 44 16 24 1009.4 1006.2 0.2
21/10:30am 28.7 27.8 23.1 71 3.9 ENE 33 46 18 25 1009.5 1006.3 0.2
21/10:16am 28.3 27.5 23.0 73 3.7 ENE 32 50 17 27 1009.7 1006.5 0.2
21/10:00am 28.4 27.3 23.5 75 3.4 ENE 35 48 19 26 1009.8 1006.6 0.2
21/09:54am 27.7 27.3 23.1 76 3.2 ENE 30 48 16 26 1010.0 1006.7 0.2
21/09:37am 27.2 26.4 23.0 78 2.9 ENE 32 43 17 23 1010.0 1006.7 0.0
21/09:30am 27.2 26.8 23.0 78 2.9 ENE 30 43 16 23 1010.1 1006.8 0.0
21/09:00am 27.1 27.4 23.6 81 2.4 ENE 28 41 15 22 1010.3 1007.0 120.8
21/08:30am 26.0 26.2 23.5 86 1.7 ENE 28 41 15 22 1010.5 1007.2 120.8
21/08:00am 25.2 26.5 23.4 90 1.2 ENE 22 32 12 17 1010.4 1007.1 120.8
21/07:30am 24.8 26.1 23.4 92 1.0 ENE 22 32 12 17 1010.0 1006.7 120.8
21/07:00am 24.3 25.6 24.0 98 0.2 E 24 30 13 16 1009.3 1006.1 120.8
21/06:50am 24.1 26.0 23.8 98 0.2 E 20 28 11 15 1009.3 1006.1 120.8
21/06:30am 23.9 25.6 23.4 97 0.3 E 20 32 11 17 1009.3 1006.1 120.8
21/06:23am 23.9 25.5 23.2 96 0.5 E 20 28 11 15 1009.2 1006.0 120.8
21/06:00am 24.1 25.2 23.1 94 0.7 E 22 28 12 15 1009.0 1005.8 120.6
21/05:30am 24.0 24.8 23.1 95 0.6 E 24 33 13 18 1008.5 1005.3 120.6
21/05:00am 23.8 24.1 23.0 95 0.5 E 26 35 14 19 1008.0 1004.7 120.6
21/04:30am 23.8 24.1 23.0 95 0.5 E 26 33 14 18 1007.7 1004.4 120.6
21/04:00am 23.4 24.3 22.7 96 0.5 E 22 32 12 17 1007.2 1004.0 120.6
21/03:30am 23.4 23.6 22.7 96 0.5 E 26 37 14 20 1007.0 1003.8 120.6
21/03:13am 23.3 23.8 22.6 96 0.5 E 24 32 13 17 1007.2 1004.0 120.6
21/03:00am 23.3 23.8 22.6 96 0.5 E 24 33 13 18 1007.1 1003.9 120.6
21/02:48am 23.2 22.5 22.5 96 0.5 ENE 30 39 16 21 1007.0 1003.8 120.6
21/02:30am 22.9 22.9 22.4 97 0.3 E 26 39 14 21 1007.2 1004.0 120.4
21/02:00am 22.9 22.8 22.2 96 0.5 ESE 26 35 14 19 1007.7 1004.4 120.0
21/01:30am 23.4 24.8 22.9 97 0.3 ESE 20 33 11 18 1007.9 1004.6 119.8
21/01:17am 23.6 24.3 22.9 96 0.5 ESE 24 32 13 17 1007.9 1004.6 119.8
21/01:11am 23.6 24.2 22.8 95 0.5 ESE 24 32 13 17 1007.9 1004.6 119.8
21/01:00am 23.6 23.9 22.9 96 0.5 E 26 35 14 19 1008.0 1004.7 119.8
21/12:34am 23.6 25.1 23.1 97 0.3 E 20 26 11 14 1008.5 1005.3 119.8
21/12:30am 23.6 25.1 23.1 97 0.3 E 20 28 11 15 1008.5 1005.3 119.8
21/12:25am 23.7 25.3 23.2 97 0.3 E 20 28 11 15 1008.4 1005.1 119.8
21/12:00am 23.7 25.6 23.4 98 0.2 E 19 26 10 14 1008.8 1005.6 119.6
 
Date/Time
WST
Temp
°C
App
Temp
°C
Dew
Point
°C
Rel
Hum
%
Delta-T
°C
Wind Press
QNH
hPa
Press
MSL
hPa
Rain since
9am
mm
Dir  Spd
km/h
Gust
km/h
Spd
kts
Gust
kts
20/11:49pm 23.7 25.6 23.5 99 0.1 ESE 19 28 10 15 1008.6 1005.4 119.2
20/11:33pm 23.5 25.7 23.3 99 0.1 ESE 17 22 9 12 1008.7 1005.5 118.2
20/11:30pm 23.5 25.7 23.3 99 0.1 ESE 17 22 9 12 1008.6 1005.4 117.8
20/11:00pm 23.5 25.7 23.3 99 0.1 ESE 17 22 9 12 1008.5 1005.3 115.2
20/10:30pm 23.5 25.7 23.2 98 0.2 ESE 17 22 9 12 1008.5 1005.3 114.6
20/10:00pm 23.5 25.2 23.0 97 0.3 E 19 30 10 16 1008.3 1005.0 114.4
20/09:30pm 23.3 24.7 22.8 97 0.3 ENE 20 28 11 15 1008.0 1004.7 114.4
20/09:04pm 23.2 24.2 22.9 98 0.2 E 22 32 12 17 1007.6 1004.3 113.8
20/09:00pm 23.1 24.5 22.8 98 0.2 E 20 30 11 16 1007.4 1004.1 113.8
20/08:45pm 23.0 21.7 22.5 97 0.3 ENE 33 44 18 24 1007.1 1003.9 113.4
20/08:30pm 22.8 21.0 22.3 97 0.3 ENE 35 50 19 27 1007.5 1004.2 112.6
20/08:28pm 22.8 21.0 22.3 97 0.3 ENE 35 50 19 27 1007.6 1004.3 112.4
20/08:00pm 23.0 21.5 22.7 98 0.2 E 35 54 19 29 1008.0 1004.7 109.0
20/07:59pm 23.1 22.0 22.9 99 0.1 E 33 52 18 28 1008.0 1004.7 108.8
20/07:30pm 22.8 22.5 22.5 98 0.2 E 28 39 15 21 1007.7 1004.4 107.2
20/07:02pm 22.6 21.0 21.8 95 0.5 E 33 50 18 27 1007.1 1003.9 106.6
20/07:00pm 22.7 21.1 21.9 95 0.5 E 33 50 18 27 1007.1 1003.9 106.6
20/06:58pm 22.7 21.2 21.7 94 0.7 E 32 50 17 27 1007.1 1003.9 106.6
20/06:56pm 22.7 21.6 21.7 94 0.7 E 30 43 16 23 1007.1 1003.9 106.6
20/06:44pm 22.8 22.6 22.0 95 0.5 ESE 26 37 14 20 1006.8 1003.6 106.6
20/06:30pm 23.2 21.8 22.0 93 0.8 E 32 56 17 30 1006.9 1003.7 106.2
20/06:28pm 23.3 23.0 22.6 96 0.5 E 28 46 15 25 1006.9 1003.7 106.0
20/06:00pm 23.6 22.8 23.3 98 0.2 ESE 33 52 18 28 1006.6 1003.4 104.4
20/05:59pm 23.6 22.8 23.3 98 0.2 ESE 33 52 18 28 1006.5 1003.3 104.0
20/05:30pm 23.3 22.9 23.1 99 0.1 ESE 30 46 16 25 1005.7 1002.4 103.0
20/05:01pm 23.3 23.3 23.1 99 0.1 ESE 28 41 15 22 1005.3 1002.0 98.2
20/05:00pm 23.3 23.3 23.1 99 0.1 ESE 28 41 15 22 1005.3 1002.0 98.2
20/04:33pm 23.2 22.2 22.7 97 0.3 ESE 32 46 17 25 1004.6 1001.4 97.6
20/04:30pm 23.2 22.2 22.7 97 0.3 ESE 32 46 17 25 1004.6 1001.4 97.6
20/04:14pm 23.2 20.6 22.2 94 0.7 ESE 39 61 21 33 1004.6 1001.4 97.2
20/04:09pm 23.9 23.5 23.7 99 0.1 ESE 32 61 17 33 1004.6 1001.4 97.0
20/04:00pm 23.9 24.3 23.7 99 0.1 ESE 28 39 15 21 1004.5 1001.3 96.4
20/03:30pm 23.5 24.4 23.3 99 0.1 ESE 24 33 13 18 1004.2 1001.0 95.0
20/03:06pm 23.4 25.0 23.2 99 0.1 ESE 20 32 11 17 1003.9 1000.6 94.2
20/03:00pm 23.5 24.8 23.3 99 0.1 ESE 22 33 12 18 1004.0 1000.8 94.0
20/02:51pm 23.4 23.4 23.1 98 0.2 SE 28 39 15 21 1004.0 1000.8 93.6
20/02:33pm 23.5 24.8 23.3 99 0.1 SE 22 30 12 16 1004.1 1000.9 92.2
20/02:30pm 23.6 24.9 23.4 99 0.1 SE 22 30 12 16 1004.1 1000.9 92.0
20/02:23pm 23.6 25.3 23.4 99 0.1 SE 20 28 11 15 1004.2 1001.0 91.6
20/02:00pm 23.4 24.6 23.2 99 0.1 ESE 22 32 12 17 1004.6 1001.4 90.2
20/01:35pm 23.2 23.9 23.0 99 0.1 ESE 24 33 13 18 1004.9 1001.6 88.4
20/01:30pm 23.1 24.1 22.9 99 0.1 ESE 22 30 12 16 1004.9 1001.6 88.2
20/01:17pm 23.2 24.3 23.0 99 0.1 ESE 22 30 12 16 1004.7 1001.5 87.6
20/01:00pm 23.1 24.1 22.9 99 0.1 ESE 22 30 12 16 1004.7 1001.5 86.6
20/12:30pm 22.7 22.8 22.5 99 0.1 ESE 26 33 14 18 1004.7 1001.5 85.6
20/12:29pm 22.7 22.8 22.5 99 0.1 ESE 26 32 14 17 1004.7 1001.5 85.6
20/12:20pm 22.9 24.2 22.7 99 0.1 ESE 20 33 11 18 1004.7 1001.5 85.4
20/12:00pm 22.9 24.8 22.7 99 0.1 ESE 17 24 9 13 1004.9 1001.6 82.8
20/11:49am 23.0 24.9 22.8 99 0.1 ESE 17 22 9 12 1004.9 1001.6 80.2
20/11:30am 23.3 25.4 23.1 99 0.1 ESE 17 26 9 14 1005.3 1002.0 68.4
20/11:00am 23.4 25.6 23.2 99 0.1 SE 17 24 9 13 1005.4 1002.1 51.4
20/10:30am 23.2 24.9 23.0 99 0.1 ENE 19 24 10 13 1005.5 1002.2 31.6
20/10:00am 23.3 25.8 23.1 99 0.1 ESE 15 19 8 10 1005.4 1002.1 13.8
20/09:30am 23.0 24.0 22.8 99 0.1 E 22 39 12 21 1005.5 1002.2 6.0
20/09:19am 23.0 23.2 22.8 99 0.1 SE 26 37 14 20 1005.3 1002.0 3.8
20/09:00am 22.8 22.1 22.5 98 0.2 SE 30 44 16 24 1005.2 1001.9 78.2
20/08:44am 22.8 21.6 22.3 97 0.3 SE 32 44 17 24 1005.2 1001.9 75.8
20/08:34am 22.9 21.1 22.2 96 0.5 SE 35 48 19 26 1005.2 1001.9 74.8
20/08:32am 22.9 20.7 22.2 96 0.5 SE 37 48 20 26 1005.2 1001.9 74.6
20/08:30am 23.0 20.9 22.3 96 0.5 SE 37 48 20 26 1005.2 1001.9 74.6
20/08:21am 23.0 20.6 22.5 97 0.3 SE 39 54 21 29 1005.2 1001.9 74.2
20/08:12am 23.0 21.3 22.5 97 0.3 SE 35 54 19 29 1005.1 1001.8 73.6
20/08:04am 22.9 20.4 22.4 97 0.3 SE 39 54 21 29 1005.1 1001.8 73.2
20/08:00am 22.9 19.6 22.2 96 0.5 SE 43 63 23 34 1005.0 1001.7 73.0
20/07:31am 23.0 21.7 22.5 97 0.3 SE 33 52 18 28 1004.7 1001.5 72.4
20/07:30am 23.0 21.8 22.7 98 0.2 SE 33 52 18 28 1004.6 1001.4 72.4
20/07:29am 23.0 21.8 22.7 98 0.2 SE 33 52 18 28 1004.6 1001.4 72.4
20/07:21am 23.0 22.0 22.7 98 0.2 SE 32 44 17 24 1004.5 1001.3 72.2
20/07:00am 22.8 22.5 22.6 99 0.1 SE 28 39 15 21 1004.0 1000.8 71.2
20/06:30am 22.7 22.0 22.5 99 0.1 ESE 30 43 16 23 1003.7 1000.4 63.8
20/06:16am 22.5 23.8 22.3 99 0.1 SSW 19 26 10 14 1003.4 1000.1 58.8
20/06:10am 22.4 23.0 22.1 98 0.2 SSW 22 32 12 17 1003.2 999.9 57.4
20/06:00am 22.5 22.0 22.2 98 0.2 S 28 39 15 21 1003.4 1000.1 55.6
20/05:46am 23.0 23.2 22.7 98 0.2 SSE 26 41 14 22 1003.5 1000.2 52.4
20/05:30am 22.7 22.6 22.2 97 0.3 S 26 37 14 20 1003.4 1000.1 51.0
20/05:10am 22.6 22.4 22.1 97 0.3 SSE 26 39 14 21 1003.6 1000.3 50.2
20/05:01am 22.5 21.0 21.8 96 0.5 SE 32 50 17 27 1003.6 1000.3 49.8
20/05:00am 22.5 20.9 21.8 96 0.5 SE 33 50 18 27 1003.6 1000.3 49.8
20/04:30am 22.3 19.9 21.8 97 0.3 SE 37 56 20 30 1003.6 1000.3 45.4
20/04:00am 22.7 20.4 22.0 96 0.5 SE 37 59 20 32 1003.7 1000.4 41.2
20/03:32am 22.1 21.3 21.6 97 0.3 S 28 46 15 25 1003.4 1000.1 36.2
20/03:30am 22.0 21.5 21.5 97 0.3 SSE 26 46 14 25 1003.4 1000.1 35.6
20/03:23am 21.9 21.3 21.2 96 0.5 SSE 26 37 14 20 1003.5 1000.2 33.4
20/03:22am 21.9 20.9 21.2 96 0.5 SSE 28 37 15 20 1003.5 1000.2 33.2
20/03:00am 22.0 18.7 20.8 93 0.8 SSE 39 65 21 35 1003.8 1000.5 31.0
20/02:54am 22.2 19.8 21.0 93 0.8 SSE 35 65 19 35 1003.9 1000.6 30.4
20/02:46am 22.2 19.9 21.2 94 0.7 SSE 35 54 19 29 1003.9 1000.6 29.6
20/02:30am 21.9 20.0 21.4 97 0.3 SSE 33 65 18 35 1003.9 1000.6 28.6
20/02:08am 22.1 20.3 21.1 94 0.7 SSE 32 56 17 30 1004.3 1001.1 22.6
20/02:06am 22.1 20.8 21.3 95 0.5 SSE 30 52 16 28 1004.2 1001.0 22.0
20/02:00am 22.1 20.3 21.1 94 0.7 SSE 32 46 17 25 1004.0 1000.8 21.6
20/01:33am 22.4 19.7 20.5 89 1.3 SSE 35 59 19 32 1004.0 1000.8 20.6
20/01:30am 22.5 19.6 20.8 90 1.1 SSE 37 59 20 32 1004.2 1001.0 20.6
20/01:21am 22.9 20.8 21.7 93 0.8 SSE 35 59 19 32 1004.3 1001.1 20.4
20/01:18am 22.9 21.4 22.1 95 0.5 SSE 33 50 18 27 1004.4 1001.2 20.4
20/01:00am 22.9 20.7 21.4 91 1.0 SSE 35 54 19 29 1004.4 1001.2 19.4
20/12:30am 23.2 22.9 22.5 96 0.5 SSE 28 46 15 25 1004.7 1001.5 17.8
20/12:22am 23.3 22.4 22.1 93 0.8 SSE 30 54 16 29 1004.7 1001.5 16.8
20/12:00am 23.8 23.3 22.1 90 1.2 S 28 46 15 25 1005.2 1001.9 16.2
 
Date/Time
WST
Temp
°C
App
Temp
°C
Dew
Point
°C
Rel
Hum
%
Delta-T
°C
Wind Press
QNH
hPa
Press
MSL
hPa
Rain since
9am
mm
Dir  Spd
km/h
Gust
km/h
Spd
kts
Gust
kts
19/11:39pm 23.8 23.4 22.4 92 1.0 S 28 46 15 25 1005.3 1002.0 16.2
19/11:30pm 23.8 23.4 22.4 92 1.0 S 28 44 15 24 1005.5 1002.2 16.2
19/11:17pm 23.7 23.6 22.9 95 0.5 S 28 46 15 25 1005.7 1002.4 16.2
19/11:00pm 23.7 24.1 23.2 97 0.3 SSW 26 39 14 21 1005.8 1002.5 15.8
19/10:30pm 23.8 24.7 23.3 97 0.3 S 24 33 13 18 1006.5 1003.3 15.0
19/10:00pm 23.5 23.7 22.8 96 0.5 S 26 39 14 21 1007.1 1003.9 14.6
19/09:46pm 23.3 24.3 22.8 97 0.3 SSE 22 35 12 19 1007.5 1004.2 14.2
19/09:30pm 23.1 23.1 22.4 96 0.5 SSE 26 37 14 20 1007.5 1004.2 13.0
19/09:28pm 23.1 22.7 22.3 95 0.5 SSE 28 39 15 21 1007.6 1004.3 12.8
19/09:00pm 23.6 24.2 22.8 95 0.5 SSE 24 39 13 21 1007.5 1004.2 11.4
19/08:30pm 23.7 25.4 23.0 96 0.5 SSE 19 32 10 17 1007.6 1004.3 11.0
19/08:00pm 24.0 24.5 22.6 92 1.0 SSE 24 39 13 21 1007.5 1004.2 10.4
19/07:30pm 23.9 24.8 22.7 93 0.8 SSE 22 33 12 18 1006.9 1003.7 10.2
19/07:24pm 23.9 24.4 22.7 93 0.8 SSE 24 33 13 18 1006.8 1003.6 10.2
19/07:00pm 23.9 24.7 23.2 96 0.5 SSE 24 35 13 19 1006.5 1003.3 10.0
19/06:36pm 24.1 25.6 23.1 94 0.7 SSE 20 30 11 16 1006.4 1003.2 9.6
19/06:30pm 24.3 25.7 22.9 92 1.0 SSE 20 30 11 16 1006.4 1003.2 9.6
19/06:00pm 24.2 25.2 22.8 92 1.0 SSE 22 33 12 18 1006.1 1002.8 9.6
19/05:44pm 24.2 23.1 22.5 90 1.2 SSE 32 50 17 27 1006.1 1002.8 9.6
19/05:42pm 24.3 23.0 22.4 89 1.3 SSE 33 50 18 27 1006.0 1002.7 9.6
19/05:38pm 24.3 23.4 22.2 88 1.4 SSE 30 50 16 27 1006.0 1002.7 9.6
19/05:30pm 24.7 26.8 23.7 94 0.7 SSE 19 35 10 19 1005.9 1002.6 9.6
19/05:09pm 25.1 27.0 23.5 91 1.1 SSE 19 32 10 17 1005.4 1002.1 7.4
19/05:08pm 25.2 26.9 23.4 90 1.2 SSE 20 32 11 17 1005.4 1002.1 7.4
19/05:02pm 25.7 27.2 23.0 85 1.9 S 20 32 11 17 1005.4 1002.1 7.2
19/05:00pm 25.9 27.4 23.0 84 2.0 S 20 30 11 16 1005.4 1002.1 7.2
19/04:30pm 25.8 27.2 23.5 87 1.6 SSE 22 32 12 17 1005.0 1001.7 7.2
19/04:00pm 25.7 26.0 23.6 88 1.5 S 28 37 15 20 1005.0 1001.7 7.2
19/03:30pm 26.3 26.7 23.8 86 1.7 SSE 28 43 15 23 1004.9 1001.6 7.2
19/03:26pm 26.0 26.2 23.5 86 1.7 SSE 28 46 15 25 1005.0 1001.7 7.2
19/03:00pm 25.7 26.7 24.1 91 1.1 S 26 37 14 20 1005.2 1001.9 7.2
19/02:30pm 26.2 26.8 24.2 89 1.4 S 28 41 15 22 1005.3 1002.0 7.0
19/02:25pm 25.9 26.3 23.8 88 1.5 S 28 41 15 22 1005.3 1002.0 7.0
19/02:22pm 25.9 26.5 24.1 90 1.3 S 28 39 15 21 1005.3 1002.0 7.0
19/02:00pm 26.0 28.3 25.1 95 0.6 SSW 22 33 12 18 1005.5 1002.2 7.0
19/01:51pm 25.2 26.7 24.3 95 0.6 SSW 24 37 13 20 1005.5 1002.2 7.0
19/01:30pm 25.1 25.5 24.4 96 0.5 SSW 30 44 16 24 1005.8 1002.5 6.0
19/01:00pm 25.5 27.2 24.6 95 0.6 SSW 24 33 13 18 1006.1 1002.8 5.2
19/12:50pm 26.1 27.5 25.4 96 0.5 SSW 28 41 15 22 1006.2 1003.0 5.0
19/12:30pm 25.4 26.0 24.2 93 0.8 SSW 28 37 15 20 1006.5 1003.3 5.0
19/12:09pm 25.5 26.8 24.1 92 1.0 SSW 24 33 13 18 1006.8 1003.6 5.0
19/12:00pm 25.7 28.0 24.5 93 0.8 SSW 20 30 11 16 1007.0 1003.8 4.8
19/11:56am 25.3 27.3 23.9 92 1.0 SSW 20 28 11 15 1007.2 1004.0 4.8
19/11:30am 25.6 26.4 23.8 90 1.3 SSW 26 35 14 19 1007.7 1004.4 4.4
19/11:07am 25.4 27.3 24.4 94 0.7 SSW 22 30 12 16 1008.1 1004.8 4.4
19/11:05am 25.3 27.2 24.4 95 0.6 SSW 22 30 12 16 1008.1 1004.8 4.4
19/11:04am 25.4 27.9 24.7 96 0.5 SSW 20 30 11 16 1008.2 1004.9 4.4
19/11:00am 25.3 27.6 24.4 95 0.6 SSW 20 28 11 15 1008.2 1004.9 4.4
19/10:30am 24.6 26.3 24.1 97 0.3 SW 22 35 12 19 1008.7 1005.5 2.6
19/10:00am 24.3 26.0 24.0 98 0.2 SSW 22 32 12 17 1008.9 1005.7 1.4
19/09:30am 24.2 25.3 23.7 97 0.3 SSW 24 33 13 18 1009.0 1005.8 0.4
19/09:00am 24.0 25.4 23.5 97 0.3 SW 22 28 12 15 1009.0 1005.8 3.6

Other formats

Comma delimited format used in spreadsheet applications
http://www.bom.gov.au/fwo/IDW60801/IDW60801.94212.axf

JavaScript Object Notation format (JSON) in row-major order
http://www.bom.gov.au/fwo/IDW60801/IDW60801.94212.json

Data quality

Most of these data are generated automatically and are frequently updated. Quality checks on data are not normally performed. It is possible for incorrect values to appear. Refer to information at About Latest Weather Observations and please check the disclaimer before using these data.